PGT8PZ LTFJ-LRCL
Flight info
| Callsign | PGT8PZ |
|---|---|
| Flight time | N/A |
| Altitude | 38000 |
| Route | MAKOL1K/24R MAKOL L619 ARGES DCT ASNEL DCT PELUR DCT EDETA |
| Aircraft | A320/M-SDE3FGHIRWY/LB1 |
Departure
| Time | N/A |
|---|---|
| Airport | Istanbul Sabiha Gökçen International Airport (LTFJ) |
Arrival
| Time | 2026-04-26 15:31 |
|---|---|
| Airport | Avram Iancu Cluj International Airport (LRCL) |
| Time | Latitude | Longitude | Altitude | Speed | Heading |
|---|---|---|---|---|---|
| 2026-04-26 14:26 | 43.03228 | 28.09267 | 37905 ft | 418 kts | 317° |
| 2026-04-26 14:27 | 43.04748 | 28.07477 | 37899 ft | 418 kts | 317° |
| 2026-04-26 14:27 | 43.09143 | 28.02292 | 37885 ft | 417 kts | 317° |
| 2026-04-26 14:28 | 43.13539 | 27.97095 | 37869 ft | 417 kts | 317° |
| 2026-04-26 14:28 | 43.17907 | 27.91924 | 37867 ft | 417 kts | 317° |
| 2026-04-26 14:29 | 43.22307 | 27.86718 | 37861 ft | 417 kts | 317° |
| 2026-04-26 14:29 | 43.26698 | 27.81501 | 37860 ft | 417 kts | 317° |
| 2026-04-26 14:30 | 43.31086 | 27.76277 | 37858 ft | 417 kts | 317° |
| 2026-04-26 14:30 | 43.35465 | 27.71040 | 37866 ft | 417 kts | 317° |
| 2026-04-26 14:31 | 43.39840 | 27.65807 | 37866 ft | 417 kts | 317° |
| 2026-04-26 14:31 | 43.44219 | 27.60569 | 37869 ft | 417 kts | 317° |
| 2026-04-26 14:32 | 43.48595 | 27.55321 | 37877 ft | 417 kts | 317° |
| 2026-04-26 14:32 | 43.52936 | 27.50093 | 37871 ft | 417 kts | 317° |
| 2026-04-26 14:33 | 43.57314 | 27.44821 | 37885 ft | 417 kts | 317° |
| 2026-04-26 14:33 | 43.61686 | 27.39546 | 37884 ft | 417 kts | 317° |
| 2026-04-26 14:34 | 43.66044 | 27.34265 | 37884 ft | 417 kts | 317° |
| 2026-04-26 14:34 | 43.70408 | 27.28971 | 37884 ft | 417 kts | 317° |
| 2026-04-26 14:35 | 43.74761 | 27.23688 | 37885 ft | 416 kts | 317° |
| 2026-04-26 14:35 | 43.79114 | 27.18393 | 37886 ft | 416 kts | 317° |
| 2026-04-26 14:36 | 43.83457 | 27.13093 | 37889 ft | 416 kts | 317° |
| 2026-04-26 14:36 | 43.87764 | 27.07824 | 37898 ft | 416 kts | 317° |
| 2026-04-26 14:37 | 43.91401 | 27.03394 | 37895 ft | 415 kts | 319° |
| 2026-04-26 14:37 | 43.95893 | 26.98377 | 37894 ft | 415 kts | 321° |
| 2026-04-26 14:38 | 44.01224 | 26.92729 | 37891 ft | 414 kts | 321° |
| 2026-04-26 14:38 | 44.05047 | 26.88631 | 37886 ft | 414 kts | 321° |
| 2026-04-26 14:39 | 44.09581 | 26.83681 | 37891 ft | 414 kts | 320° |
| 2026-04-26 14:39 | 44.14079 | 26.78714 | 37910 ft | 413 kts | 320° |
| 2026-04-26 14:40 | 44.18549 | 26.73786 | 37903 ft | 411 kts | 320° |
| 2026-04-26 14:40 | 44.23023 | 26.68858 | 37900 ft | 409 kts | 320° |
| 2026-04-26 14:41 | 44.27486 | 26.63941 | 37897 ft | 408 kts | 320° |
| 2026-04-26 14:41 | 44.31936 | 26.59030 | 37895 ft | 407 kts | 320° |
| 2026-04-26 14:42 | 44.36373 | 26.54110 | 37891 ft | 407 kts | 320° |
| 2026-04-26 14:42 | 44.40804 | 26.49190 | 37885 ft | 407 kts | 320° |
| 2026-04-26 14:43 | 44.45238 | 26.44266 | 37894 ft | 406 kts | 320° |
| 2026-04-26 14:43 | 44.49654 | 26.39340 | 37891 ft | 406 kts | 319° |
| 2026-04-26 14:44 | 44.54068 | 26.34403 | 37888 ft | 405 kts | 319° |
| 2026-04-26 14:44 | 44.58481 | 26.29469 | 37885 ft | 405 kts | 320° |
| 2026-04-26 14:45 | 44.62883 | 26.24537 | 37881 ft | 405 kts | 319° |
| 2026-04-26 14:45 | 44.67289 | 26.19584 | 37867 ft | 405 kts | 319° |
| 2026-04-26 14:46 | 44.71662 | 26.14654 | 37889 ft | 405 kts | 319° |
| 2026-04-26 14:46 | 44.76058 | 26.09691 | 37891 ft | 405 kts | 319° |
| 2026-04-26 14:47 | 44.80454 | 26.04723 | 37892 ft | 404 kts | 319° |
| 2026-04-26 14:47 | 44.84838 | 25.99765 | 37898 ft | 404 kts | 319° |
| 2026-04-26 14:48 | 44.89218 | 25.94802 | 37901 ft | 404 kts | 319° |
| 2026-04-26 14:48 | 44.93590 | 25.89829 | 37902 ft | 404 kts | 319° |
| 2026-04-26 14:49 | 44.98032 | 25.84964 | 37919 ft | 405 kts | 322° |
| 2026-04-26 14:49 | 45.02658 | 25.80420 | 37950 ft | 405 kts | 323° |
| 2026-04-26 14:50 | 45.07305 | 25.75934 | 37956 ft | 403 kts | 323° |
| 2026-04-26 14:50 | 45.11894 | 25.71401 | 37954 ft | 401 kts | 322° |
| 2026-04-26 14:51 | 45.16439 | 25.66841 | 37958 ft | 400 kts | 322° |
| 2026-04-26 14:51 | 45.20975 | 25.62293 | 37976 ft | 399 kts | 322° |
| 2026-04-26 14:52 | 45.25506 | 25.57753 | 37975 ft | 398 kts | 322° |
| 2026-04-26 14:52 | 45.30027 | 25.53223 | 37996 ft | 396 kts | 322° |
| 2026-04-26 14:53 | 45.34503 | 25.48740 | 37973 ft | 391 kts | 322° |
| 2026-04-26 14:53 | 45.38946 | 25.44243 | 37992 ft | 392 kts | 322° |
| 2026-04-26 14:54 | 45.43386 | 25.39747 | 38005 ft | 392 kts | 322° |
| 2026-04-26 14:54 | 45.47798 | 25.35279 | 37980 ft | 392 kts | 322° |
| 2026-04-26 14:54 | 45.50017 | 25.33025 | 37708 ft | 391 kts | 322° |
| 2026-04-26 14:55 | 45.52239 | 25.30768 | 37417 ft | 392 kts | 322° |
| 2026-04-26 14:55 | 45.54467 | 25.28505 | 37141 ft | 395 kts | 322° |
| 2026-04-26 14:55 | 45.56711 | 25.26224 | 36882 ft | 397 kts | 322° |
| 2026-04-26 14:55 | 45.58969 | 25.23932 | 36613 ft | 401 kts | 321° |
| 2026-04-26 14:56 | 45.61253 | 25.21612 | 36071 ft | 404 kts | 321° |
| 2026-04-26 14:56 | 45.63546 | 25.19276 | 35328 ft | 405 kts | 321° |
| 2026-04-26 14:56 | 45.65844 | 25.16931 | 34548 ft | 407 kts | 322° |
| 2026-04-26 14:56 | 45.68158 | 25.14570 | 33788 ft | 409 kts | 322° |
| 2026-04-26 14:57 | 45.70480 | 25.12196 | 32851 ft | 412 kts | 322° |
| 2026-04-26 14:57 | 45.72813 | 25.09803 | 31896 ft | 414 kts | 322° |
| 2026-04-26 14:57 | 45.75164 | 25.07394 | 31003 ft | 416 kts | 322° |
| 2026-04-26 14:57 | 45.77527 | 25.04969 | 30045 ft | 419 kts | 322° |
| 2026-04-26 14:58 | 45.79895 | 25.02532 | 29124 ft | 417 kts | 322° |
| 2026-04-26 14:58 | 45.82222 | 25.00138 | 28612 ft | 407 kts | 322° |
| 2026-04-26 14:58 | 45.84503 | 24.97792 | 27983 ft | 400 kts | 322° |
| 2026-04-26 14:58 | 45.86748 | 24.95482 | 27371 ft | 393 kts | 322° |
| 2026-04-26 14:59 | 45.88951 | 24.93213 | 26766 ft | 387 kts | 322° |
| 2026-04-26 14:59 | 45.91123 | 24.90976 | 26178 ft | 381 kts | 322° |
| 2026-04-26 14:59 | 45.93228 | 24.88798 | 25615 ft | 375 kts | 322° |
| 2026-04-26 14:59 | 45.94646 | 24.87331 | 25238 ft | 371 kts | 322° |
| 2026-04-26 15:00 | 45.97397 | 24.84485 | 24492 ft | 364 kts | 322° |
| 2026-04-26 15:00 | 45.99440 | 24.82368 | 23952 ft | 359 kts | 322° |
| 2026-04-26 15:00 | 46.01450 | 24.80279 | 23394 ft | 354 kts | 322° |
| 2026-04-26 15:00 | 46.03432 | 24.78216 | 22848 ft | 348 kts | 322° |
| 2026-04-26 15:01 | 46.05375 | 24.76195 | 22369 ft | 341 kts | 322° |
| 2026-04-26 15:01 | 46.07280 | 24.74211 | 21908 ft | 335 kts | 322° |
| 2026-04-26 15:01 | 46.09153 | 24.72260 | 21474 ft | 329 kts | 322° |
| 2026-04-26 15:01 | 46.10992 | 24.70343 | 21051 ft | 323 kts | 322° |
| 2026-04-26 15:02 | 46.12803 | 24.68459 | 20637 ft | 319 kts | 322° |
| 2026-04-26 15:02 | 46.14595 | 24.66593 | 20236 ft | 316 kts | 322° |
| 2026-04-26 15:02 | 46.16370 | 24.64742 | 19843 ft | 314 kts | 322° |
| 2026-04-26 15:02 | 46.18133 | 24.62900 | 19454 ft | 312 kts | 322° |
| 2026-04-26 15:03 | 46.19886 | 24.61062 | 19054 ft | 312 kts | 322° |
| 2026-04-26 15:03 | 46.21637 | 24.59221 | 18659 ft | 310 kts | 323° |
| 2026-04-26 15:03 | 46.23377 | 24.57395 | 18233 ft | 308 kts | 323° |
| 2026-04-26 15:03 | 46.25112 | 24.55573 | 17802 ft | 307 kts | 323° |
| 2026-04-26 15:04 | 46.26837 | 24.53759 | 17386 ft | 305 kts | 323° |
| 2026-04-26 15:04 | 46.28523 | 24.51988 | 16977 ft | 304 kts | 323° |
| 2026-04-26 15:04 | 46.30231 | 24.50192 | 16555 ft | 302 kts | 323° |
| 2026-04-26 15:04 | 46.31927 | 24.48409 | 16131 ft | 301 kts | 323° |
| 2026-04-26 15:05 | 46.33617 | 24.46635 | 15706 ft | 300 kts | 323° |
| 2026-04-26 15:05 | 46.34754 | 24.45442 | 15421 ft | 299 kts | 323° |
| 2026-04-26 15:05 | 46.36979 | 24.43104 | 14862 ft | 297 kts | 323° |
| 2026-04-26 15:05 | 46.38643 | 24.41349 | 14431 ft | 296 kts | 323° |
| 2026-04-26 15:06 | 46.40303 | 24.39594 | 14001 ft | 295 kts | 323° |
| 2026-04-26 15:06 | 46.41957 | 24.37840 | 13528 ft | 294 kts | 323° |
| 2026-04-26 15:06 | 46.43606 | 24.36091 | 13094 ft | 292 kts | 323° |
| 2026-04-26 15:06 | 46.45237 | 24.34363 | 12656 ft | 289 kts | 323° |
| 2026-04-26 15:07 | 46.48462 | 24.30949 | 11775 ft | 285 kts | 322° |
| 2026-04-26 15:07 | 46.50061 | 24.29255 | 11327 ft | 284 kts | 322° |
| 2026-04-26 15:07 | 46.51653 | 24.27566 | 10869 ft | 283 kts | 322° |
| 2026-04-26 15:08 | 46.53221 | 24.25901 | 10670 ft | 274 kts | 322° |
| 2026-04-26 15:08 | 46.54728 | 24.24301 | 10554 ft | 262 kts | 321° |
| 2026-04-26 15:08 | 46.56177 | 24.22756 | 10358 ft | 255 kts | 321° |
| 2026-04-26 15:08 | 46.57598 | 24.21239 | 10114 ft | 252 kts | 321° |
| 2026-04-26 15:09 | 46.59007 | 24.19731 | 9948 ft | 251 kts | 321° |
| 2026-04-26 15:09 | 46.60411 | 24.18226 | 9814 ft | 251 kts | 321° |
| 2026-04-26 15:09 | 46.61802 | 24.16739 | 9680 ft | 251 kts | 321° |
| 2026-04-26 15:09 | 46.63206 | 24.15241 | 9537 ft | 250 kts | 321° |
| 2026-04-26 15:10 | 46.64613 | 24.13743 | 9183 ft | 250 kts | 322° |
| 2026-04-26 15:10 | 46.65565 | 24.12729 | 8883 ft | 250 kts | 322° |
| 2026-04-26 15:10 | 46.67413 | 24.10756 | 8284 ft | 249 kts | 322° |
| 2026-04-26 15:10 | 46.68809 | 24.09261 | 7805 ft | 250 kts | 322° |
| 2026-04-26 15:11 | 46.70198 | 24.07771 | 7380 ft | 245 kts | 322° |
| 2026-04-26 15:11 | 46.71555 | 24.06316 | 6886 ft | 241 kts | 323° |
| 2026-04-26 15:11 | 46.72907 | 24.04868 | 6434 ft | 240 kts | 323° |
| 2026-04-26 15:11 | 46.74261 | 24.03416 | 5966 ft | 241 kts | 323° |
| 2026-04-26 15:12 | 46.75611 | 24.01966 | 5519 ft | 240 kts | 323° |
| 2026-04-26 15:12 | 46.76954 | 24.00521 | 5079 ft | 239 kts | 323° |
| 2026-04-26 15:12 | 46.78288 | 23.99087 | 4720 ft | 235 kts | 324° |
| 2026-04-26 15:12 | 46.79565 | 23.97712 | 4664 ft | 220 kts | 324° |
| 2026-04-26 15:13 | 46.80757 | 23.96426 | 4609 ft | 207 kts | 325° |
| 2026-04-26 15:13 | 46.81888 | 23.95206 | 4529 ft | 197 kts | 324° |
| 2026-04-26 15:13 | 46.82855 | 23.93810 | 4328 ft | 196 kts | 307° |
| 2026-04-26 15:13 | 46.83422 | 23.92005 | 4156 ft | 196 kts | 288° |
| 2026-04-26 15:14 | 46.83512 | 23.90025 | 3926 ft | 202 kts | 268° |
| 2026-04-26 15:14 | 46.83141 | 23.88049 | 3677 ft | 198 kts | 259° |
| 2026-04-26 15:14 | 46.82725 | 23.86206 | 3443 ft | 184 kts | 261° |
| 2026-04-26 15:14 | 46.82341 | 23.84495 | 3199 ft | 170 kts | 260° |
| 2026-04-26 15:15 | 46.81995 | 23.82953 | 2967 ft | 152 kts | 262° |
| 2026-04-26 15:15 | 46.81677 | 23.81526 | 2768 ft | 145 kts | 263° |
| 2026-04-26 15:15 | 46.81369 | 23.80138 | 2553 ft | 144 kts | 262° |
| 2026-04-26 15:15 | 46.81063 | 23.78768 | 2377 ft | 141 kts | 263° |
| 2026-04-26 15:16 | 46.80759 | 23.77406 | 2180 ft | 140 kts | 263° |
| 2026-04-26 15:16 | 46.80455 | 23.76044 | 1981 ft | 144 kts | 259° |
| 2026-04-26 15:16 | 46.80144 | 23.74661 | 1788 ft | 141 kts | 263° |
| 2026-04-26 15:16 | 46.79838 | 23.73295 | 1586 ft | 144 kts | 257° |
| 2026-04-26 15:17 | 46.79531 | 23.71937 | 1416 ft | 137 kts | 258° |
| 2026-04-26 15:17 | 46.79333 | 23.71065 | 1285 ft | 140 kts | 256° |
| 2026-04-26 15:17 | 46.78918 | 23.69258 | 1058 ft | 138 kts | 261° |
| 2026-04-26 15:17 | 46.78643 | 23.67942 | 1323 ft | 149 kts | 255° |
| 2026-04-26 15:18 | 46.78377 | 23.66432 | 2133 ft | 162 kts | 263° |
| 2026-04-26 15:18 | 46.78081 | 23.64781 | 3125 ft | 170 kts | 263° |
| 2026-04-26 15:18 | 46.77905 | 23.63621 | 3430 ft | 183 kts | 268° |
| 2026-04-26 15:18 | 46.78374 | 23.61270 | 3947 ft | 194 kts | 314° |
| 2026-04-26 15:19 | 46.79516 | 23.60302 | 4002 ft | 192 kts | 348° |
| 2026-04-26 15:19 | 46.80827 | 23.60607 | 4007 ft | 199 kts | 24° |
| 2026-04-26 15:19 | 46.81865 | 23.62006 | 4013 ft | 208 kts | 44° |
| 2026-04-26 15:19 | 46.82767 | 23.63703 | 4008 ft | 213 kts | 46° |
| 2026-04-26 15:20 | 46.83652 | 23.65444 | 4006 ft | 214 kts | 46° |
| 2026-04-26 15:20 | 46.84243 | 23.66636 | 4012 ft | 214 kts | 47° |
| 2026-04-26 15:20 | 46.85119 | 23.68385 | 4008 ft | 212 kts | 46° |
| 2026-04-26 15:20 | 46.85978 | 23.70093 | 4011 ft | 212 kts | 45° |
| 2026-04-26 15:21 | 46.86863 | 23.71848 | 4012 ft | 212 kts | 46° |
| 2026-04-26 15:21 | 46.87728 | 23.73568 | 4008 ft | 211 kts | 47° |
| 2026-04-26 15:21 | 46.88598 | 23.75296 | 4010 ft | 211 kts | 46° |
| 2026-04-26 15:21 | 46.89462 | 23.77036 | 4010 ft | 211 kts | 47° |
| 2026-04-26 15:22 | 46.90240 | 23.78874 | 3910 ft | 217 kts | 62° |
| 2026-04-26 15:22 | 46.90382 | 23.81076 | 3773 ft | 223 kts | 96° |
| 2026-04-26 15:22 | 46.89693 | 23.83101 | 3638 ft | 227 kts | 132° |
| 2026-04-26 15:22 | 46.88446 | 23.84493 | 3522 ft | 223 kts | 141° |
| 2026-04-26 15:23 | 46.87444 | 23.86146 | 3397 ft | 215 kts | 120° |
| 2026-04-26 15:23 | 46.86651 | 23.87985 | 3240 ft | 212 kts | 117° |
| 2026-04-26 15:23 | 46.85891 | 23.89832 | 3107 ft | 212 kts | 116° |
| 2026-04-26 15:23 | 46.85120 | 23.91684 | 3019 ft | 215 kts | 118° |
| 2026-04-26 15:24 | 46.84348 | 23.93565 | 2999 ft | 217 kts | 116° |
| 2026-04-26 15:24 | 46.83567 | 23.95469 | 3010 ft | 218 kts | 116° |
| 2026-04-26 15:24 | 46.82781 | 23.97364 | 3024 ft | 217 kts | 117° |
| 2026-04-26 15:24 | 46.81737 | 23.98942 | 3015 ft | 222 kts | 152° |
| 2026-04-26 15:25 | 46.80298 | 23.99429 | 2999 ft | 213 kts | 191° |
| 2026-04-26 15:25 | 46.78998 | 23.98663 | 2994 ft | 195 kts | 231° |
| 2026-04-26 15:25 | 46.78379 | 23.97075 | 3047 ft | 174 kts | 271° |
| 2026-04-26 15:25 | 46.78640 | 23.95466 | 3016 ft | 162 kts | 311° |
| 2026-04-26 15:26 | 46.79580 | 23.94682 | 3019 ft | 161 kts | 352° |
| 2026-04-26 15:26 | 46.80712 | 23.94786 | 3019 ft | 163 kts | 0° |
| 2026-04-26 15:26 | 46.81756 | 23.94367 | 3015 ft | 159 kts | 321° |
| 2026-04-26 15:26 | 46.82381 | 23.93020 | 3007 ft | 161 kts | 301° |
| 2026-04-26 15:27 | 46.82770 | 23.91580 | 3041 ft | 147 kts | 296° |
| 2026-04-26 15:27 | 46.83118 | 23.90212 | 3019 ft | 141 kts | 296° |
| 2026-04-26 15:27 | 46.83334 | 23.88814 | 2986 ft | 149 kts | 269° |
| 2026-04-26 15:27 | 46.82906 | 23.87396 | 3005 ft | 151 kts | 255° |
| 2026-04-26 15:28 | 46.82628 | 23.85978 | 3019 ft | 143 kts | 263° |
| 2026-04-26 15:28 | 46.82346 | 23.84597 | 3010 ft | 141 kts | 264° |
| 2026-04-26 15:28 | 46.82055 | 23.83239 | 2932 ft | 142 kts | 262° |
| 2026-04-26 15:28 | 46.81754 | 23.81868 | 2782 ft | 142 kts | 262° |
| 2026-04-26 15:29 | 46.81451 | 23.80499 | 2601 ft | 142 kts | 261° |
| 2026-04-26 15:29 | 46.81146 | 23.79130 | 2426 ft | 142 kts | 261° |
| 2026-04-26 15:29 | 46.80533 | 23.76391 | 2028 ft | 144 kts | 259° |
| 2026-04-26 15:30 | 46.79923 | 23.73673 | 1638 ft | 142 kts | 256° |
| 2026-04-26 15:30 | 46.79622 | 23.72336 | 1451 ft | 137 kts | 261° |
| 2026-04-26 15:30 | 46.79330 | 23.71011 | 1262 ft | 139 kts | 258° |
| 2026-04-26 15:31 | 46.79020 | 23.69687 | 1074 ft | 138 kts | 253° |
| 2026-04-26 15:31 | 46.78640 | 23.67947 | 1043 ft | 32 kts | 252° |
| 2026-04-26 15:31 | 46.78577 | 23.67661 | 1043 ft | 25 kts | 252° |
| 2026-04-26 15:32 | 46.78511 | 23.67373 | 1043 ft | 0 kts | 251° |
| 2026-04-26 15:32 | 46.78490 | 23.67273 | 1043 ft | 24 kts | 254° |
| 2026-04-26 15:32 | 46.78401 | 23.67200 | 1043 ft | 16 kts | 158° |
| 2026-04-26 15:33 | 46.78341 | 23.67312 | 1043 ft | 13 kts | 105° |
| 2026-04-26 15:33 | 46.78351 | 23.67427 | 1043 ft | 11 kts | 78° |
| 2026-04-26 15:33 | 46.78368 | 23.67531 | 1043 ft | 10 kts | 76° |
| 2026-04-26 15:33 | 46.78392 | 23.67643 | 1043 ft | 12 kts | 72° |
| 2026-04-26 15:34 | 46.78416 | 23.67754 | 1043 ft | 11 kts | 71° |
| 2026-04-26 15:34 | 46.78439 | 23.67854 | 1043 ft | 10 kts | 72° |
| 2026-04-26 15:34 | 46.78460 | 23.67944 | 1043 ft | 9 kts | 71° |
| 2026-04-26 15:34 | 46.78482 | 23.68047 | 1043 ft | 18 kts | 72° |
| 2026-04-26 15:35 | 46.78524 | 23.68229 | 1043 ft | 18 kts | 71° |
| 2026-04-26 15:35 | 46.78563 | 23.68400 | 1043 ft | 17 kts | 71° |
| 2026-04-26 15:35 | 46.78598 | 23.68558 | 1043 ft | 16 kts | 72° |
| 2026-04-26 15:35 | 46.78631 | 23.68703 | 1043 ft | 15 kts | 71° |
| 2026-04-26 15:36 | 46.78661 | 23.68838 | 1043 ft | 13 kts | 72° |
| 2026-04-26 15:36 | 46.78689 | 23.68962 | 1043 ft | 13 kts | 71° |
| 2026-04-26 15:36 | 46.78715 | 23.69077 | 1043 ft | 11 kts | 72° |
| 2026-04-26 15:36 | 46.78739 | 23.69181 | 1043 ft | 10 kts | 72° |
| 2026-04-26 15:37 | 46.78717 | 23.69255 | 1043 ft | 9 kts | 162° |
| 2026-04-26 15:37 | 46.78659 | 23.69284 | 1043 ft | 8 kts | 161° |
| 2026-04-26 15:37 | 46.78603 | 23.69311 | 1043 ft | 9 kts | 162° |
| 2026-04-26 15:37 | 46.78576 | 23.69324 | 1043 ft | 1 kts | 162° |
| 2026-04-26 15:38 | 46.78562 | 23.69322 | 1043 ft | 2 kts | 205° |
| 2026-04-26 15:38 | 46.78553 | 23.69304 | 1043 ft | 4 kts | 240° |
| 2026-04-26 15:38 | 46.78543 | 23.69261 | 1043 ft | 4 kts | 250° |
| 2026-04-26 15:38 | 46.78541 | 23.69253 | 1043 ft | 0 kts | 251° |